createdAt,value
2022-11-29T00:01:09.120Z,47.83
2022-11-29T00:05:57.313Z,42.45
2022-11-29T00:10:42.545Z,39.17
2022-11-29T00:15:27.936Z,31.65
2022-11-29T00:20:14.276Z,29.92
2022-11-29T00:25:02.275Z,28.55
2022-11-29T00:29:47.612Z,21.55
2022-11-29T00:34:33.031Z,22.40
2022-11-29T00:39:18.176Z,25.55
2022-11-29T00:44:06.319Z,24.65
2022-11-29T00:48:51.425Z,31.15
2022-11-29T00:53:37.514Z,28.73
2022-11-29T00:58:23.329Z,22.80
2022-11-29T01:03:11.479Z,27.20
2022-11-29T01:07:56.877Z,21.95
2022-11-29T01:12:43.160Z,29.00
2022-11-29T01:17:28.277Z,27.13
2022-11-29T01:22:16.292Z,31.65
2022-11-29T01:27:01.592Z,25.05
2022-11-29T01:31:47.052Z,23.13
2022-11-29T01:36:32.759Z,22.27
2022-11-29T01:41:22.711Z,20.60
2022-11-29T01:46:07.813Z,32.63
2022-11-29T01:50:53.891Z,24.48
2022-11-29T01:55:42.166Z,27.95
2022-11-29T02:00:30.450Z,24.23
2022-11-29T02:05:18.123Z,21.33
2022-11-29T02:10:05.230Z,19.13
2022-11-29T02:15:10.392Z,22.67
2022-11-29T02:20:28.574Z,26.05
2022-11-29T02:25:32.850Z,28.52
2022-11-29T02:30:24.909Z,20.15
2022-11-29T02:35:26.078Z,23.48
2022-11-29T02:40:30.232Z,18.30
2022-11-29T02:45:28.961Z,17.08
2022-11-29T02:50:38.534Z,20.38
2022-11-29T02:55:31.301Z,19.45
2022-11-29T03:00:19.079Z,21.85
2022-11-29T03:05:15.776Z,19.75
2022-11-29T03:10:13.857Z,21.25
2022-11-29T03:15:06.694Z,15.18
2022-11-29T03:20:06.581Z,12.02
2022-11-29T03:24:58.256Z,20.58
2022-11-29T03:29:51.855Z,16.70
2022-11-29T03:34:54.285Z,20.20
2022-11-29T03:39:52.582Z,21.45
2022-11-29T03:44:43.736Z,28.58
2022-11-29T03:49:38.556Z,13.73
2022-11-29T03:54:28.429Z,20.45
2022-11-29T03:59:27.695Z,25.83
2022-11-29T04:04:42.616Z,12.80
2022-11-29T04:09:54.124Z,11.25
2022-11-29T04:15:00.097Z,12.05
2022-11-29T04:20:29.825Z,18.20
2022-11-29T04:25:42.339Z,12.30
2022-11-29T04:30:28.981Z,13.93
2022-11-29T04:35:42.629Z,14.38
2022-11-29T04:40:51.416Z,10.18
2022-11-29T04:46:05.140Z,12.35
2022-11-29T04:50:59.134Z,15.02
2022-11-29T04:55:55.416Z,15.77
2022-11-29T05:00:52.043Z,12.27
2022-11-29T05:05:45.810Z,15.90
2022-11-29T05:10:37.081Z,15.75
2022-11-29T05:16:03.688Z,15.73
2022-11-29T05:20:55.947Z,12.85
2022-11-29T05:25:47.871Z,16.80
2022-11-29T05:35:56.367Z,12.55
2022-11-29T05:40:57.027Z,14.60
2022-11-29T05:45:52.353Z,10.65
2022-11-29T05:50:43.967Z,9.25
2022-11-29T05:55:40.432Z,10.00
2022-11-29T06:00:27.804Z,7.05
2022-11-29T06:05:21.383Z,7.57
2022-11-29T06:10:12.428Z,14.43
2022-11-29T06:15:23.582Z,15.63
2022-11-29T06:20:50.423Z,14.77
2022-11-29T06:26:00.701Z,7.57
2022-11-29T06:31:00.842Z,7.88
2022-11-29T06:35:51.215Z,8.80
2022-11-29T06:40:40.427Z,13.65
2022-11-29T06:45:29.256Z,14.63
2022-11-29T06:50:32.311Z,9.15
2022-11-29T06:55:23.329Z,9.95
2022-11-29T07:00:16.300Z,11.70
2022-11-29T07:05:17.050Z,10.85
2022-11-29T07:10:05.624Z,18.63
2022-11-29T07:14:53.558Z,16.38
2022-11-29T07:19:47.636Z,13.38
2022-11-29T07:24:48.961Z,10.63
2022-11-29T07:29:45.309Z,14.97
2022-11-29T07:34:39.089Z,23.52
2022-11-29T07:39:41.604Z,58.38
2022-11-29T07:44:36.437Z,36.30
2022-11-29T07:49:21.787Z,36.40
2022-11-29T07:54:07.480Z,32.40
2022-11-29T07:58:52.873Z,31.48
2022-11-29T08:03:40.935Z,26.38
2022-11-29T08:08:26.140Z,35.70
2022-11-29T08:13:11.594Z,43.20
2022-11-29T08:17:57.012Z,37.00
2022-11-29T08:22:45.671Z,35.90
2022-11-29T08:27:31.061Z,43.80
2022-11-29T08:32:16.506Z,42.22
2022-11-29T08:37:01.571Z,45.45
2022-11-29T08:41:49.582Z,40.92
2022-11-29T08:46:46.985Z,37.25
2022-11-29T08:51:32.421Z,38.08
2022-11-29T08:57:10.050Z,26.85
2022-11-29T09:01:29.417Z,29.38
2022-11-29T09:06:16.682Z,34.88
2022-11-29T09:11:02.110Z,32.10
2022-11-29T09:15:47.407Z,39.70
2022-11-29T09:20:36.588Z,19.48
2022-11-29T09:25:21.805Z,20.63
2022-11-29T09:30:08.403Z,19.80
2022-11-29T09:34:53.428Z,30.27
2022-11-29T09:39:41.784Z,24.02
2022-11-29T09:44:38.200Z,18.58
2022-11-29T09:49:48.483Z,17.50
2022-11-29T09:54:41.412Z,17.83
2022-11-29T09:59:31.925Z,20.73
2022-11-29T10:04:22.514Z,25.83
2022-11-29T10:09:14.891Z,23.92
2022-11-29T10:14:04.328Z,18.42
2022-11-29T10:18:56.810Z,16.75
2022-11-29T10:23:46.744Z,12.50
2022-11-29T10:28:34.060Z,11.68
2022-11-29T10:33:23.370Z,13.27
2022-11-29T10:38:30.823Z,15.70
2022-11-29T10:43:16.910Z,16.42
2022-11-29T10:48:07.149Z,24.92
2022-11-29T10:52:55.870Z,15.35
2022-11-29T10:58:17.300Z,13.75
2022-11-29T11:03:27.639Z,9.60
2022-11-29T11:08:20.447Z,14.95
2022-11-29T11:13:08.250Z,8.93
2022-11-29T11:18:03.932Z,12.02
2022-11-29T11:23:00.192Z,11.10
2022-11-29T11:27:45.574Z,11.73
2022-11-29T11:32:30.729Z,9.85
2022-11-29T11:37:22.891Z,11.80
2022-11-29T11:42:27.384Z,13.23
2022-11-29T11:47:18.463Z,12.63
2022-11-29T11:52:04.392Z,13.07
2022-11-29T11:56:49.856Z,13.77
2022-11-29T12:01:40.854Z,11.55
2022-11-29T12:06:41.317Z,10.17
2022-11-29T12:11:28.547Z,12.13
2022-11-29T12:16:19.941Z,14.07
2022-11-29T12:21:14.705Z,11.20
2022-11-29T12:26:05.825Z,13.77
2022-11-29T12:30:59.898Z,11.38
2022-11-29T12:36:13.408Z,19.85
2022-11-29T12:41:04.407Z,13.05
2022-11-29T12:45:56.767Z,14.10
2022-11-29T12:50:50.615Z,15.32
2022-11-29T12:55:51.893Z,17.17
2022-11-29T13:00:45.844Z,12.95
2022-11-29T13:05:44.165Z,8.75
2022-11-29T13:10:52.883Z,10.98
2022-11-29T13:15:45.264Z,11.38
2022-11-29T13:25:27.280Z,8.18
2022-11-29T13:30:21.347Z,9.30
2022-11-29T13:35:11.642Z,16.52
2022-11-29T13:40:04.393Z,9.57
2022-11-29T13:44:58.800Z,14.40
2022-11-29T13:49:58.967Z,15.82
2022-11-29T13:54:44.578Z,13.63
2022-11-29T13:59:32.519Z,10.90
2022-11-29T14:04:27.691Z,9.52
2022-11-29T14:09:28.431Z,9.45
2022-11-29T14:14:25.522Z,12.65
2022-11-29T14:19:30.124Z,12.88
2022-11-29T14:24:45.563Z,12.73
2022-11-29T14:30:00.960Z,14.18
2022-11-29T14:34:51.999Z,10.02
2022-11-29T14:39:47.747Z,11.93
2022-11-29T14:44:35.018Z,14.50
2022-11-29T14:49:31.217Z,13.18
2022-11-29T14:54:20.164Z,16.52
2022-11-29T14:59:34.951Z,18.17
2022-11-29T15:04:25.771Z,16.27
2022-11-29T15:09:20.276Z,22.92
2022-11-29T15:14:09.177Z,21.55
2022-11-29T15:19:16.686Z,19.08
2022-11-29T15:24:14.695Z,25.70
2022-11-29T15:29:18.418Z,23.75
2022-11-29T15:34:04.108Z,20.23
2022-11-29T15:38:51.811Z,20.27
2022-11-29T15:43:41.426Z,24.15
2022-11-29T15:48:28.115Z,24.55
2022-11-29T15:53:21.470Z,25.40
2022-11-29T15:58:08.994Z,31.38
2022-11-29T16:03:01.340Z,25.52
2022-11-29T16:07:47.275Z,28.38
2022-11-29T16:12:32.679Z,26.30
2022-11-29T16:17:18.267Z,28.02
2022-11-29T16:22:15.984Z,29.88
2022-11-29T16:27:03.846Z,33.70
2022-11-29T16:31:49.019Z,27.60
2022-11-29T16:36:34.420Z,24.73
2022-11-29T16:41:35.303Z,32.50
2022-11-29T16:46:35.060Z,26.65
2022-11-29T16:51:27.087Z,27.27
2022-11-29T16:56:14.858Z,34.22
2022-11-29T17:01:03.153Z,27.92
2022-11-29T17:05:48.684Z,26.25
2022-11-29T17:10:33.855Z,39.03
2022-11-29T17:15:19.429Z,46.58
2022-11-29T17:20:08.852Z,42.90
2022-11-29T17:24:54.288Z,23.77
2022-11-29T17:29:39.742Z,24.50
